Time;durP1;ratioP1;P1;durP2;ratioP2;P2;SDS_P1;SDS_P2;PMS_P1;PMS_P2;Temp;Humidity;BMP_temperature;BMP_pressure;BME280_temperature;BME280_humidity;BME280_pressure;Samples;Min_cycle;Max_cycle;Signal;HPM_P1;HPM_P2
2020/12/16 00:01:43;;;;;;;10.63;5.42;;;;;;;4.80;75.85;99920.95;1696351;84;21153;-94
2020/12/16 00:04:10;;;;;;;11.20;5.75;;;;;;;4.77;76.05;99928.62;1687967;84;21297;-92
2020/12/16 00:06:37;;;;;;;10.03;5.15;;;;;;;4.74;76.25;99928.61;1684224;83;21304;-91
2020/12/16 00:09:05;;;;;;;10.38;5.85;;;;;;;4.73;76.17;99929.44;1692098;84;21780;-92
2020/12/16 00:11:34;;;;;;;12.95;5.85;;;;;;;4.71;75.84;99928.55;1695660;84;21174;-91
2020/12/16 00:14:02;;;;;;;12.15;6.35;;;;;;;4.72;76.17;99931.16;1727617;81;21176;-92
2020/12/16 00:16:30;;;;;;;11.73;6.28;;;;;;;4.72;76.23;99934.16;1730479;81;21174;-91
2020/12/16 00:18:57;;;;;;;12.18;5.95;;;;;;;4.71;76.32;99930.70;1696004;82;22035;-91
2020/12/16 00:21:24;;;;;;;10.50;5.15;;;;;;;4.68;76.12;99920.81;1725438;82;21301;-94
2020/12/16 00:23:52;;;;;;;11.90;5.33;;;;;;;4.67;76.17;99930.22;1692197;84;21191;-94
2020/12/16 00:26:19;;;;;;;13.98;5.30;;;;;;;4.65;76.36;99925.47;1711785;84;21168;-95
2020/12/16 00:28:47;;;;;;;11.75;5.50;;;;;;;4.67;76.65;99925.50;1719748;82;21627;-94
2020/12/16 00:31:16;;;;;;;13.30;6.05;;;;;;;4.66;76.41;99930.23;1723770;82;21282;-94
2020/12/16 00:33:43;;;;;;;13.25;6.12;;;;;;;4.67;76.61;99930.66;1695834;81;21750;-91
2020/12/16 00:36:11;;;;;;;13.90;6.30;;;;;;;4.73;77.18;99925.57;1727155;82;21160;-92
2020/12/16 00:38:38;;;;;;;13.85;5.97;;;;;;;4.77;77.15;99929.91;1724144;82;21181;-91
2020/12/16 00:41:06;;;;;;;13.55;6.47;;;;;;;4.77;76.62;99936.34;1717015;82;21275;-92
2020/12/16 00:43:34;;;;;;;13.90;6.58;;;;;;;4.77;75.77;99930.80;1726402;82;21902;-92
2020/12/16 00:48:39;;;;;;;14.05;7.25;;;;;;;4.89;76.33;99922.31;1811623;77;23051;-93
2020/12/16 00:51:06;;;;;;;14.20;6.92;;;;;;;4.85;76.22;99931.29;1795985;79;21280;-92
2020/12/16 00:53:35;;;;;;;13.60;7.00;;;;;;;4.83;76.16;99925.26;1668811;79;21218;-93
2020/12/16 00:56:08;;;;;;;12.53;6.92;;;;;;;4.81;76.04;99929.09;1655905;83;21170;-91
2020/12/16 00:58:36;;;;;;;14.15;7.50;;;;;;;4.78;76.04;99923.92;1647278;85;21149;-92
2020/12/16 01:01:09;;;;;;;13.98;7.87;;;;;;;4.77;75.78;99919.61;1710641;81;21140;-91
2020/12/16 01:03:37;;;;;;;14.07;7.50;;;;;;;4.71;75.73;99920.83;1656205;81;22054;-92
2020/12/16 01:06:05;;;;;;;13.43;7.03;;;;;;;4.67;75.52;99913.91;1650269;87;21319;-92
2020/12/16 01:08:33;;;;;;;12.93;6.97;;;;;;;4.64;75.66;99915.18;1684250;85;21584;-93
2020/12/16 01:11:00;;;;;;;13.93;7.83;;;;;;;4.62;75.63;99913.01;1702345;84;21832;-92
2020/12/16 01:13:29;;;;;;;15.98;7.55;;;;;;;4.59;75.56;99915.09;1760500;80;21192;-92
2020/12/16 01:15:57;;;;;;;14.25;7.37;;;;;;;4.54;75.64;99916.34;1765617;80;21299;-92
2020/12/16 01:18:24;;;;;;;15.10;6.15;;;;;;;4.53;75.54;99916.31;1713635;82;21183;-91
2020/12/16 01:20:54;;;;;;;13.95;6.08;;;;;;;4.48;76.23;99916.70;1803881;78;21590;-91
2020/12/16 01:23:41;;;;;;;14.50;6.42;;;;;;;4.48;76.40;99916.70;1780268;80;21267;-93
2020/12/16 01:26:09;;;;;;;13.43;6.00;;;;;;;4.51;76.57;99918.00;1773967;80;21320;-94
2020/12/16 01:28:38;;;;;;;12.73;6.42;;;;;;;4.49;76.55;99915.84;1828548;77;21187;-93
2020/12/16 01:31:08;;;;;;;13.20;6.37;;;;;;;4.50;76.96;99914.58;1778671;77;21184;-93
2020/12/16 01:33:36;;;;;;;15.55;7.28;;;;;;;4.49;77.06;99903.81;1791173;78;21172;-92
2020/12/16 01:36:16;;;;;;;15.20;7.80;;;;;;;4.54;76.79;99902.17;1785709;79;23063;-92
2020/12/16 01:38:44;;;;;;;14.18;8.05;;;;;;;4.55;77.14;99901.75;1740689;78;21167;-93
2020/12/16 01:41:12;;;;;;;16.12;7.85;;;;;;;4.53;76.86;99906.88;1771593;80;21172;-91
2020/12/16 01:43:41;;;;;;;14.75;7.65;;;;;;;4.58;76.92;99904.38;1717954;82;21333;-92
2020/12/16 01:46:10;;;;;;;16.15;8.50;;;;;;;4.54;76.63;99900.03;1715879;81;21192;-92
2020/12/16 01:48:38;;;;;;;23.35;7.78;;;;;;;4.53;76.47;99891.85;1718103;83;21334;-92
2020/12/16 01:51:10;;;;;;;15.43;7.50;;;;;;;4.48;76.89;99898.24;1718137;83;21327;-91
2020/12/16 01:53:37;;;;;;;14.50;7.42;;;;;;;4.48;76.50;99894.37;1779185;80;21154;-91
2020/12/16 01:56:06;;;;;;;16.10;7.62;;;;;;;4.45;76.50;99895.61;1708061;79;21300;-91
2020/12/16 01:58:57;;;;;;;13.88;7.08;;;;;;;4.42;76.87;99893.02;1678120;82;21294;-91
2020/12/16 02:01:26;;;;;;;15.88;7.30;;;;;;;4.25;76.75;99879.06;1692820;82;21168;-90
2020/12/16 02:03:55;;;;;;;16.15;7.60;;;;;;;4.39;76.89;99902.84;1711953;79;21158;-90
2020/12/16 02:06:29;;;;;;;17.60;6.70;;;;;;;4.35;77.03;99901.50;1717604;82;21128;-92
2020/12/16 02:11:41;;;;;;;13.38;6.37;;;;;;;4.34;77.19;99904.50;1812508;77;22699;-91
2020/12/16 02:14:11;;;;;;;13.43;6.87;;;;;;;4.31;77.25;99903.59;1732502;78;21173;-91
2020/12/16 02:16:44;;;;;;;13.78;6.70;;;;;;;4.29;77.31;99898.41;1732122;81;21349;-92
2020/12/16 02:19:14;;;;;;;17.80;7.30;;;;;;;4.34;77.48;99901.08;1673151;80;21164;-93
2020/12/16 02:21:54;;;;;;;13.58;6.25;;;;;;;4.38;77.46;99895.11;1829022;77;23074;-92
2020/12/16 02:24:27;;;;;;;15.25;6.60;;;;;;;4.36;77.72;99897.66;1739827;78;21261;-91
2020/12/16 02:26:56;;;;;;;16.70;6.85;;;;;;;4.39;77.71;99895.55;1677953;82;21145;-92
2020/12/16 02:29:26;;;;;;;14.70;7.00;;;;;;;4.43;77.74;99896.02;1739558;82;21123;-91
2020/12/16 02:31:57;;;;;;;14.23;7.28;;;;;;;4.48;77.83;99894.37;1699508;82;21215;-92
2020/12/16 02:34:25;;;;;;;16.45;8.03;;;;;;;4.51;77.38;99896.98;1679772;82;21160;-92
2020/12/16 02:36:53;;;;;;;15.70;7.10;;;;;;;4.44;77.30;99881.46;1685337;84;21164;-92
2020/12/16 02:39:40;;;;;;;15.35;7.90;;;;;;;4.52;76.88;99891.42;1642984;86;21526;-91
2020/12/16 02:42:20;;;;;;;14.93;7.22;;;;;;;4.51;77.01;99887.96;1648198;83;21328;-92
2020/12/16 02:44:57;;;;;;;15.30;6.97;;;;;;;4.50;77.14;99887.54;1634551;86;21202;-90
2020/12/16 02:47:37;;;;;;;15.50;7.78;;;;;;;4.55;77.21;99885.86;1802476;77;22946;-92
2020/12/16 02:50:08;;;;;;;14.80;7.95;;;;;;;4.50;76.73;99890.11;1703300;79;21296;-93
2020/12/16 02:52:38;;;;;;;14.53;7.15;;;;;;;4.46;76.99;99889.64;1662626;80;21201;-91
2020/12/16 02:55:07;;;;;;;13.72;6.60;;;;;;;4.38;76.93;99893.83;1703059;80;21717;-92
2020/12/16 02:57:49;;;;;;;14.73;7.80;;;;;;;4.40;77.15;99886.98;1868076;75;23163;-93
2020/12/16 03:00:16;;;;;;;11.50;6.55;;;;;;;4.32;77.33;99889.89;1838573;77;21294;-93
2020/12/16 03:03:04;;;;;;;13.15;6.37;;;;;;;4.32;76.86;99895.04;1825867;78;21526;-92
2020/12/16 03:05:41;;;;;;;14.05;6.40;;;;;;;4.29;77.16;99897.56;1806958;78;22930;-92
2020/12/16 03:08:12;;;;;;;19.30;7.75;;;;;;;4.21;77.31;99896.17;1710547;79;21330;-91
2020/12/16 03:10:44;;;;;;;14.28;6.12;;;;;;;4.21;77.49;99892.30;1723422;79;21155;-92
2020/12/16 03:13:12;;;;;;;12.98;6.60;;;;;;;4.21;77.68;99898.73;1732073;82;21152;-92
2020/12/16 03:15:55;;;;;;;13.03;5.97;;;;;;;4.27;77.70;99891.53;1822424;78;22859;-91
2020/12/16 03:18:24;;;;;;;12.98;6.40;;;;;;;4.23;77.92;99889.77;1709010;80;22288;-91
2020/12/16 03:20:55;;;;;;;14.28;7.08;;;;;;;4.25;77.85;99885.06;1705870;82;21279;-91
2020/12/16 03:23:23;;;;;;;15.60;7.12;;;;;;;4.32;78.23;99891.18;1712038;80;21189;-93
2020/12/16 03:26:10;;;;;;;13.28;7.22;;;;;;;4.28;78.07;99892.84;1684433;83;21325;-92
2020/12/16 03:28:43;;;;;;;15.40;7.15;;;;;;;4.30;77.77;99898.02;1685350;83;21528;-92
2020/12/16 03:31:23;;;;;;;14.13;7.72;;;;;;;4.34;77.86;99900.64;1822379;77;22896;-92
2020/12/16 03:33:59;;;;;;;16.60;7.10;;;;;;;4.32;77.55;99902.77;1712545;78;21335;-93
2020/12/16 03:36:46;;;;;;;17.17;7.78;;;;;;;4.28;77.46;99898.42;1791714;78;21277;-91
2020/12/16 03:39:14;;;;;;;15.70;7.22;;;;;;;4.25;77.44;99903.52;1778712;80;21297;-92
2020/12/16 03:41:42;;;;;;;16.62;7.45;;;;;;;4.22;77.27;99891.48;1782327;79;21316;-92
2020/12/16 03:44:11;;;;;;;16.85;7.33;;;;;;;4.21;77.16;99901.31;1681483;80;21194;-91
2020/12/16 03:46:42;;;;;;;14.25;7.70;;;;;;;4.21;76.90;99903.89;1668916;81;21187;-92
2020/12/16 03:49:11;;;;;;;13.83;6.67;;;;;;;4.13;77.40;99899.06;1691724;82;21207;-90
2020/12/16 03:51:39;;;;;;;15.10;8.08;;;;;;;4.12;77.49;99893.48;1689712;84;21161;-91
2020/12/16 03:54:09;;;;;;;17.10;8.10;;;;;;;4.09;77.46;99898.14;1684348;83;21287;-91
2020/12/16 03:56:49;;;;;;;14.25;6.45;;;;;;;4.09;77.19;99902.01;1701327;83;21161;-90
2020/12/16 03:59:35;;;;;;;16.77;6.97;;;;;;;4.08;77.75;99904.55;1806699;77;23103;-92
2020/12/16 04:02:04;;;;;;;14.38;6.87;;;;;;;4.05;77.79;99909.24;1654293;79;21313;-90
2020/12/16 04:04:36;;;;;;;14.98;6.85;;;;;;;4.08;77.97;99910.98;1662532;83;21187;-91
2020/12/16 04:07:05;;;;;;;13.25;6.25;;;;;;;4.06;78.08;99910.98;1718767;81;21308;-93
2020/12/16 04:09:35;;;;;;;13.43;6.35;;;;;;;4.09;78.12;99912.30;1774327;79;21966;-92
2020/12/16 04:12:04;;;;;;;16.25;6.97;;;;;;;4.13;78.23;99911.50;1760341;80;21138;-91
2020/12/16 04:14:34;;;;;;;16.02;7.33;;;;;;;4.19;78.48;99916.73;1770204;80;21133;-91
2020/12/16 04:17:04;;;;;;;17.23;7.92;;;;;;;4.23;78.47;99918.07;1669118;80;21355;-89
2020/12/16 04:19:42;;;;;;;16.17;7.12;;;;;;;4.27;78.26;99915.55;1829244;77;22937;-93
2020/12/16 04:22:10;;;;;;;16.82;7.67;;;;;;;4.24;78.31;99925.83;1814678;78;21276;-92
2020/12/16 04:24:39;;;;;;;15.72;7.37;;;;;;;4.26;78.12;99928.39;1714829;78;21309;-92
2020/12/16 04:27:09;;;;;;;15.78;8.18;;;;;;;4.25;77.96;99930.54;1781141;79;21148;-92
2020/12/16 04:29:41;;;;;;;17.07;8.05;;;;;;;4.24;77.77;99927.51;1793510;79;21309;-92
2020/12/16 04:32:10;;;;;;;13.60;7.78;;;;;;;4.22;77.47;99924.94;1741858;79;21175;-92
2020/12/16 04:34:40;;;;;;;15.58;7.95;;;;;;;4.19;77.71;99926.16;1773421;78;21202;-92
2020/12/16 04:37:08;;;;;;;19.23;7.95;;;;;;;3.91;77.71;99894.03;1688421;80;21166;-93
2020/12/16 04:39:37;;;;;;;19.07;8.10;;;;;;;4.17;77.93;99933.86;1749885;80;21147;-93
2020/12/16 04:42:05;;;;;;;20.08;8.13;;;;;;;4.17;77.63;99939.44;1743055;81;21281;-93
2020/12/16 04:44:36;;;;;;;16.95;7.40;;;;;;;4.13;77.63;99938.52;1709407;83;21277;-92
2020/12/16 04:47:08;;;;;;;15.28;7.67;;;;;;;4.01;77.67;99920.34;1783053;79;21291;-93
2020/12/16 04:49:37;;;;;;;16.75;8.28;;;;;;;4.11;77.37;99945.36;1803571;78;21285;-92
2020/12/16 04:52:06;;;;;;;14.20;6.90;;;;;;;3.90;77.48;99918.91;1700909;78;21664;-92
2020/12/16 04:54:55;;;;;;;23.98;7.40;;;;;;;4.05;77.57;99950.84;1735352;81;21259;-91
2020/12/16 04:57:24;;;;;;;15.63;7.20;;;;;;;4.03;77.57;99950.81;1756886;79;21207;-90
2020/12/16 04:59:57;;;;;;;15.40;6.90;;;;;;;4.05;77.64;99960.70;1674985;78;21172;-93
2020/12/16 05:02:26;;;;;;;19.82;8.23;;;;;;;4.05;77.82;99961.14;1713729;81;21226;-92
2020/12/16 05:05:05;;;;;;;15.10;6.67;;;;;;;4.13;78.12;99965.97;1802982;78;22932;-91
2020/12/16 05:07:34;;;;;;;18.82;9.05;;;;;;;4.11;78.09;99966.38;1744470;77;21236;-92
2020/12/16 05:10:03;;;;;;;27.10;10.60;;;;;;;4.13;78.44;99968.12;1724845;80;21145;-91
2020/12/16 05:12:31;;;;;;;25.10;9.03;;;;;;;3.96;78.60;99940.00;1688124;79;21194;-91
2020/12/16 05:14:59;;;;;;;18.90;8.78;;;;;;;4.18;78.71;99969.49;1783599;78;21290;-92
2020/12/16 05:17:27;;;;;;;24.72;10.55;;;;;;;4.23;78.26;99972.13;1786957;79;21160;-91
2020/12/16 05:20:07;;;;;;;23.73;10.65;;;;;;;4.27;78.42;99973.90;1716166;79;21758;-91
2020/12/16 05:22:35;;;;;;;23.70;10.50;;;;;;;4.28;78.27;99979.51;1744502;80;21144;-91
2020/12/16 05:25:03;;;;;;;25.10;11.05;;;;;;;4.32;78.35;99977.42;1739241;81;21219;-91
2020/12/16 05:27:33;;;;;;;22.20;9.50;;;;;;;4.27;77.95;99982.48;1716771;81;21300;-92
2020/12/16 05:30:10;;;;;;;19.50;9.38;;;;;;;4.28;77.86;99983.37;1754812;80;21167;-92
2020/12/16 05:32:37;;;;;;;23.67;10.63;;;;;;;4.27;77.82;99985.05;1776810;79;21240;-93
2020/12/16 05:35:43;;;;;;;49.35;20.70;;;;;;;4.08;77.69;99958.59;1782778;78;21308;-91
2020/12/16 05:38:13;;;;;;;23.35;11.12;;;;;;;4.23;77.37;99981.13;1734550;81;21162;-90
2020/12/16 05:40:43;;;;;;;26.77;12.65;;;;;;;4.14;77.60;99984.45;1763671;81;21309;-92
2020/12/16 05:43:32;;;;;;;32.23;11.97;;;;;;;4.09;78.23;99987.36;1707914;80;21351;-91
2020/12/16 05:45:59;;;;;;;23.22;11.08;;;;;;;4.05;78.66;99983.86;1744101;82;21313;-91
2020/12/16 05:48:30;;;;;;;26.57;11.18;;;;;;;3.99;78.57;99988.92;1736698;82;21202;-92
2020/12/16 05:50:59;;;;;;;22.87;10.58;;;;;;;3.98;78.82;99989.78;1749037;80;21563;-90
2020/12/16 05:53:29;;;;;;;23.52;9.70;;;;;;;3.93;79.08;99987.54;1752697;78;21175;-91
2020/12/16 05:56:01;;;;;;;20.45;9.35;;;;;;;3.93;78.73;99995.26;1746204;81;21539;-89
2020/12/16 05:58:34;;;;;;;21.95;7.90;;;;;;;3.93;78.27;99989.69;1734724;80;21134;-92
2020/12/16 06:01:06;;;;;;;18.87;9.23;;;;;;;3.94;78.31;99992.72;1773944;78;21428;-90
2020/12/16 06:03:40;;;;;;;19.10;8.40;;;;;;;3.95;78.16;99988.00;1744359;80;21178;-88
2020/12/16 06:06:10;;;;;;;23.18;9.90;;;;;;;3.97;78.31;99988.03;1741940;80;21133;-90
2020/12/16 06:08:41;;;;;;;32.00;14.20;;;;;;;4.01;78.65;99988.52;1726963;78;21601;-92
2020/12/16 06:11:12;;;;;;;19.80;8.15;;;;;;;4.02;78.51;99988.09;1725966;80;22301;-91
2020/12/16 06:13:46;;;;;;;20.35;8.63;;;;;;;4.06;78.63;99995.02;1789710;78;21619;-92
2020/12/16 06:16:15;;;;;;;19.77;10.20;;;;;;;4.05;78.60;99999.30;1774223;79;21199;-91
2020/12/16 06:18:44;;;;;;;21.75;9.43;;;;;;;4.10;78.57;99989.08;1784625;80;21157;-92
2020/12/16 06:21:14;;;;;;;21.00;9.68;;;;;;;4.18;78.91;99993.52;1787807;80;21458;-91
2020/12/16 06:23:45;;;;;;;33.75;14.23;;;;;;;4.21;78.80;99995.69;1719713;78;21183;-91
2020/12/16 06:26:21;;;;;;;22.95;11.25;;;;;;;4.26;78.73;100004.33;1761612;78;21282;-92
2020/12/16 06:28:54;;;;;;;24.77;10.98;;;;;;;4.31;78.46;100006.56;1707861;83;21999;-91
2020/12/16 06:31:28;;;;;;;36.55;15.48;;;;;;;4.29;77.86;100013.40;1681032;85;21148;-92
2020/12/16 06:34:15;;;;;;;37.78;17.52;;;;;;;4.24;77.86;100006.02;1711308;83;21168;-92
2020/12/16 06:36:45;;;;;;;26.73;12.07;;;;;;;4.23;77.89;100009.02;1693696;82;21195;-91
2020/12/16 06:39:21;;;;;;;29.95;12.95;;;;;;;4.21;77.69;100003.41;1727480;82;21194;-94
2020/12/16 06:42:02;;;;;;;28.38;13.78;;;;;;;4.17;77.93;100010.22;1642114;86;21182;-90
2020/12/16 06:44:30;;;;;;;35.38;13.55;;;;;;;4.13;77.89;100010.58;1659692;85;21330;-92
2020/12/16 06:46:58;;;;;;;30.52;12.00;;;;;;;4.10;77.86;100005.41;1628439;86;21331;-92
2020/12/16 06:49:32;;;;;;;34.20;14.65;;;;;;;4.10;77.93;100010.55;1698932;82;21307;-94
2020/12/16 06:52:07;;;;;;;23.57;10.78;;;;;;;4.10;77.53;100009.27;1658293;79;21181;-92
2020/12/16 06:54:44;;;;;;;36.23;14.73;;;;;;;4.07;77.56;100007.06;1770497;80;21280;-92
2020/12/16 06:57:25;;;;;;;31.68;13.10;;;;;;;4.06;77.56;100011.74;1705637;80;21313;-94
2020/12/16 07:00:00;;;;;;;27.85;12.85;;;;;;;4.04;77.50;100011.74;1774125;80;22110;-91
2020/12/16 07:02:38;;;;;;;19.27;9.15;;;;;;;4.02;77.61;100018.58;1683442;84;21153;-91
2020/12/16 07:05:31;;;;;;;22.55;9.45;;;;;;;4.01;77.69;100022.40;1709525;80;21149;-91
2020/12/16 07:07:58;;;;;;;20.35;8.68;;;;;;;3.99;77.83;100028.80;1767026;80;21278;-90
2020/12/16 07:10:44;;;;;;;23.75;9.28;;;;;;;4.02;77.92;100024.12;1754619;81;21573;-93
2020/12/16 07:16:17;;;;;;;34.03;13.80;;;;;;;4.04;78.05;100014.72;1743187;82;21092;-91
2020/12/16 07:18:51;;;;;;;25.08;9.93;;;;;;;4.10;78.16;100023.42;1728096;81;21307;-93
2020/12/16 07:21:24;;;;;;;22.93;10.03;;;;;;;4.15;78.22;100023.05;1736402;80;21182;-93
2020/12/16 07:23:59;;;;;;;20.57;9.93;;;;;;;4.24;78.06;100026.61;1761385;79;21183;-91
2020/12/16 07:26:43;;;;;;;29.27;12.98;;;;;;;4.32;77.84;100028.91;1638044;86;21178;-93
2020/12/16 07:29:38;;;;;;;25.30;11.70;;;;;;;4.32;77.73;100027.62;1753194;80;21173;-92
2020/12/16 07:32:12;;;;;;;25.60;12.28;;;;;;;4.32;77.54;100027.19;1754484;81;21253;-91
2020/12/16 07:34:48;;;;;;;25.68;13.03;;;;;;;4.33;77.46;100035.34;1806608;79;21238;-92
2020/12/16 07:37:21;;;;;;;27.27;12.55;;;;;;;4.33;77.28;100028.05;1802761;79;21267;-94
2020/12/16 07:40:05;;;;;;;28.27;11.70;;;;;;;4.32;77.21;100037.91;1803671;79;21236;-93
2020/12/16 07:42:34;;;;;;;26.85;11.78;;;;;;;4.30;77.13;100033.17;1803124;79;21129;-95
2020/12/16 07:45:09;;;;;;;25.60;11.73;;;;;;;4.32;77.02;100032.77;1801451;79;21279;-93
2020/12/16 07:47:38;;;;;;;27.07;12.33;;;;;;;4.27;76.80;100029.24;1800975;79;21239;-93
2020/12/16 07:50:10;;;;;;;29.50;13.55;;;;;;;4.24;76.91;100034.33;1776340;80;21227;-92
2020/12/16 07:52:38;;;;;;;37.90;15.10;;;;;;;4.19;76.94;100029.98;1805851;79;21261;-93
2020/12/16 07:55:05;;;;;;;27.82;10.78;;;;;;;4.19;77.02;100029.98;1806903;79;21296;-93
2020/12/16 07:57:35;;;;;;;16.97;8.55;;;;;;;4.13;76.97;100029.88;1801817;79;21279;-93
2020/12/16 08:00:04;;;;;;;32.60;12.93;;;;;;;4.18;76.91;100028.27;1794183;79;21224;-91
2020/12/16 08:02:54;;;;;;;32.23;12.15;;;;;;;4.24;76.76;100026.61;1825790;77;22980;-92
2020/12/16 08:05:24;;;;;;;21.42;8.98;;;;;;;4.28;77.57;100032.28;1725974;79;21299;-94
2020/12/16 08:07:53;;;;;;;20.95;9.23;;;;;;;4.30;77.35;100037.88;1692992;80;21271;-91
2020/12/16 08:10:22;;;;;;;19.27;8.38;;;;;;;4.30;77.29;100034.02;1697729;82;21161;-94
2020/12/16 08:12:53;;;;;;;23.92;9.38;;;;;;;4.37;77.25;100034.97;1695622;84;21724;-93
2020/12/16 08:15:19;;;;;;;24.90;10.45;;;;;;;4.41;77.33;100035.45;1783813;79;21155;-95
2020/12/16 08:17:51;;;;;;;19.35;10.15;;;;;;;4.46;77.03;100035.55;1779658;79;21111;-95
2020/12/16 08:26:41;;;;;;;28.05;13.30;;;;;;;4.56;76.49;100032.26;1757893;78;21398;-92
2020/12/16 08:29:09;;;;;;;21.93;11.65;;;;;;;4.56;76.42;100033.55;1735815;81;21216;-92
2020/12/16 08:31:37;;;;;;;21.75;10.10;;;;;;;4.53;75.81;100037.34;1694245;84;21606;-92
2020/12/16 08:34:08;;;;;;;31.40;15.10;;;;;;;4.41;75.61;100030.31;1744590;79;21164;-92
2020/12/16 08:36:36;;;;;;;26.93;10.05;;;;;;;4.43;76.76;100034.20;1721363;82;21303;-91
2020/12/16 08:39:06;;;;;;;23.70;12.20;;;;;;;4.44;76.38;100032.95;1696836;83;21193;-92
2020/12/16 08:41:36;;;;;;;19.90;9.88;;;;;;;4.46;76.05;100032.97;1706822;79;21194;-94
2020/12/16 08:44:06;;;;;;;22.77;10.45;;;;;;;4.37;75.70;100032.40;1766395;78;21271;-93
2020/12/16 08:46:39;;;;;;;30.97;10.13;;;;;;;4.33;76.13;100034.48;1749510;81;21113;-93
2020/12/16 08:49:07;;;;;;;24.12;9.28;;;;;;;4.31;76.11;100028.45;1771161;78;21228;-91
2020/12/16 08:51:44;;;;;;;23.07;8.68;;;;;;;4.32;76.14;100032.34;1770115;80;21293;-94
2020/12/16 08:54:30;;;;;;;20.30;9.75;;;;;;;4.35;76.45;100034.94;1815898;77;22962;-93
2020/12/16 08:56:58;;;;;;;37.13;14.33;;;;;;;4.35;76.56;100036.66;1827914;78;21260;-92
2020/12/16 08:59:30;;;;;;;25.05;11.53;;;;;;;4.41;76.69;100029.45;1826146;78;21284;-91
2020/12/16 09:02:07;;;;;;;22.65;10.65;;;;;;;4.43;75.94;100023.91;1754284;77;21506;-91
2020/12/16 09:04:38;;;;;;;28.85;13.62;;;;;;;4.50;76.93;100018.87;1732233;81;21272;-94
2020/12/16 09:07:12;;;;;;;36.55;15.40;;;;;;;4.47;76.37;100017.52;1717111;81;21227;-92
2020/12/16 09:10:02;;;;;;;;;;;;;;;;;;;;;
2020/12/16 09:12:48;;;;;;;20.88;11.30;;;;;;;4.39;76.21;100016.55;1737551;82;21344;-94
2020/12/16 09:15:16;;;;;;;25.43;11.43;;;;;;;4.41;76.00;100020.44;1709041;81;21282;-94
2020/12/16 09:17:44;;;;;;;23.05;11.48;;;;;;;4.37;76.31;100017.80;1680647;85;21288;-94
2020/12/16 09:29:48;;;;;;;24.70;9.98;;;;;;;4.35;76.31;100006.62;1731081;79;21187;-86
2020/12/16 09:32:26;;;;;;;20.80;8.68;;;;;;;4.42;76.11;100007.99;1695393;83;21321;-95
2020/12/16 09:34:55;;;;;;;49.65;21.45;;;;;;;4.46;76.44;100001.64;1773348;78;21236;-94
2020/12/16 09:37:28;;;;;;;20.05;9.38;;;;;;;4.51;77.54;99989.68;1761828;77;21732;-90
2020/12/16 09:40:08;;;;;;;21.17;8.95;;;;;;;4.65;76.78;99994.16;1736193;82;21876;-91
2020/12/16 09:42:59;;;;;;;30.92;12.37;;;;;;;4.58;76.63;99992.80;1728323;80;21154;-91
2020/12/16 09:45:32;;;;;;;27.58;11.68;;;;;;;4.48;76.34;99996.52;1724468;82;21106;-92
2020/12/16 09:48:00;;;;;;;25.17;11.65;;;;;;;4.50;76.09;99999.98;1719784;77;21241;-94
2020/12/16 09:50:30;;;;;;;20.05;10.72;;;;;;;4.54;76.21;99990.17;1714406;83;21233;-96
2020/12/16 09:53:17;;;;;;;;;;;;;;;;;;;;;
2020/12/16 09:56:03;;;;;;;24.02;10.48;;;;;;;4.56;75.83;99985.91;1739402;80;21188;-95
2020/12/16 09:58:38;;;;;;;22.50;10.03;;;;;;;4.58;75.78;99986.36;1740533;81;21233;-95
2020/12/16 10:01:05;;;;;;;20.12;10.78;;;;;;;4.55;75.62;99976.43;1748846;78;21256;-94
2020/12/16 10:03:33;;;;;;;29.85;11.73;;;;;;;4.60;76.11;99971.36;1734263;80;21260;-94
2020/12/16 10:06:00;;;;;;;26.55;11.65;;;;;;;4.69;75.95;99971.46;1750521;81;21245;-94
2020/12/16 10:08:28;;;;;;;33.63;13.45;;;;;;;4.70;75.77;99970.20;1733054;82;21295;-95
2020/12/16 10:10:55;;;;;;;31.85;12.50;;;;;;;4.70;75.68;99966.77;1736536;81;21253;-95
2020/12/16 10:13:24;;;;;;;26.90;9.50;;;;;;;4.82;76.48;99960.91;1732555;82;21244;-95
2020/12/16 10:15:52;;;;;;;24.92;10.55;;;;;;;4.84;75.28;99966.50;1700046;81;21279;-93
2020/12/16 10:18:19;;;;;;;26.27;10.35;;;;;;;4.83;75.37;99962.19;1687595;82;21333;-93
2020/12/16 10:20:46;;;;;;;23.62;9.50;;;;;;;4.90;74.86;99957.56;1712570;83;21303;-93
2020/12/16 10:26:24;;;;;;;28.27;10.70;;;;;;;4.94;75.58;99949.45;1709595;80;21212;-94
2020/12/16 10:29:05;;;;;;;21.57;9.93;;;;;;;5.03;75.69;99944.80;1685312;81;21295;31
2020/12/16 10:31:32;;;;;;;23.05;11.15;;;;;;;5.14;76.20;99940.64;1665699;85;21309;-95
2020/12/16 10:34:00;;;;;;;30.70;13.08;;;;;;;5.22;74.58;99936.42;1664443;84;21186;-95
2020/12/16 10:42:48;;;;;;;29.77;12.50;;;;;;;5.36;74.45;99921.95;1781396;80;21152;-95
2020/12/16 10:48:25;;;;;;;36.43;14.63;;;;;;;5.45;74.96;99920.30;1697259;82;21316;31
2020/12/16 10:50:53;;;;;;;25.80;12.33;;;;;;;5.31;72.95;99913.32;1681298;85;21525;-96
2020/12/16 10:53:21;;;;;;;33.15;13.18;;;;;;;5.37;73.73;99908.62;1679396;84;21277;-94
2020/12/16 10:55:49;;;;;;;42.08;18.23;;;;;;;5.31;73.62;99905.59;1678327;85;21157;-95
2020/12/16 10:58:29;;;;;;;45.73;18.57;;;;;;;5.21;73.33;99902.89;1731699;78;21310;31
2020/12/16 11:00:57;;;;;;;47.67;20.82;;;;;;;5.25;73.91;99907.22;1715922;82;21239;-92
2020/12/16 11:03:24;;;;;;;48.90;21.60;;;;;;;5.24;73.75;99906.36;1782040;79;21121;-91
2020/12/16 11:05:53;;;;;;;46.55;17.23;;;;;;;5.23;73.13;99902.04;1796479;79;21303;-92
2020/12/16 11:08:21;;;;;;;53.50;21.75;;;;;;;5.32;74.08;99898.27;1801339;78;21256;-93
2020/12/16 11:10:51;;;;;;;48.80;20.17;;;;;;;5.36;73.98;99900.02;1795793;79;21301;-92
2020/12/16 11:13:19;;;;;;;83.58;30.97;;;;;;;5.43;74.16;99902.66;1719580;77;21489;-93
2020/12/16 11:15:46;;;;;;;78.15;28.83;;;;;;;5.49;74.11;99898.44;1684906;84;21224;-94
2020/12/16 11:18:14;;;;;;;84.37;32.55;;;;;;;5.52;73.68;99902.31;1756527;80;21286;-95
2020/12/16 11:20:41;;;;;;;43.98;18.80;;;;;;;5.58;73.83;99892.47;1743526;81;21325;-95
2020/12/16 11:23:08;;;;;;;73.70;29.70;;;;;;;5.55;73.14;99894.61;1735031;80;21303;-94
2020/12/16 11:25:35;;;;;;;57.60;21.90;;;;;;;5.57;72.80;99894.20;1733061;80;21229;-94
2020/12/16 11:28:03;;;;;;;77.72;26.97;;;;;;;5.54;72.73;99887.70;1737725;80;21180;-95
2020/12/16 11:30:30;;;;;;;54.38;19.82;;;;;;;5.62;73.17;99883.91;1746129;80;21142;-93
2020/12/16 11:32:58;;;;;;;29.55;14.07;;;;;;;5.69;73.84;99888.67;1740217;80;21168;-94
2020/12/16 11:35:25;;;;;;;35.10;14.10;;;;;;;5.66;72.87;99892.54;1735407;81;21177;-95
2020/12/16 11:37:53;;;;;;;33.25;15.25;;;;;;;5.60;71.69;99893.78;1727281;81;21487;-94
2020/12/16 11:40:20;;;;;;;36.10;12.45;;;;;;;5.58;72.52;99896.34;1736848;80;22575;-93
2020/12/16 11:42:47;;;;;;;37.67;14.53;;;;;;;5.48;72.68;99893.25;1741367;81;21292;-94
2020/12/16 11:45:15;;;;;;;40.83;15.32;;;;;;;5.30;72.30;99883.65;1731664;80;21291;-93
2020/12/16 11:47:42;;;;;;;59.18;20.35;;;;;;;5.12;73.18;99855.55;1740243;80;21292;-94
2020/12/16 11:50:11;;;;;;;104.58;35.05;;;;;;;5.35;73.10;99876.80;1736475;80;21307;-94
2020/12/16 11:52:38;;;;;;;106.60;33.85;;;;;;;5.29;72.11;99887.06;1741896;79;21162;-93
2020/12/16 11:55:06;;;;;;;45.43;17.62;;;;;;;5.26;73.25;99867.28;1751554;81;21132;-91
2020/12/16 11:57:34;;;;;;;45.95;18.70;;;;;;;5.41;72.32;99886.30;1750870;81;21286;-93
2020/12/16 12:00:01;;;;;;;40.00;17.23;;;;;;;5.49;73.94;99896.25;1757840;81;21638;-93
2020/12/16 12:02:31;;;;;;;57.35;23.40;;;;;;;5.45;71.88;99890.23;1753294;78;21203;-93
2020/12/16 12:05:02;;;;;;;46.28;19.20;;;;;;;5.53;73.12;99892.84;1755137;79;21153;-93
2020/12/16 12:07:30;;;;;;;42.78;18.17;;;;;;;5.60;73.35;99897.22;1682351;80;21199;-92
2020/12/16 12:09:57;;;;;;;32.90;15.60;;;;;;;5.67;73.09;99900.30;1672159;85;21188;-91
2020/12/16 12:12:28;;;;;;;37.58;15.28;;;;;;;5.62;72.01;99902.39;1735245;80;21740;-91
2020/12/16 12:14:56;;;;;;;37.78;16.80;;;;;;;5.56;72.10;99900.63;1746895;79;22335;-92
2020/12/16 12:17:24;;;;;;;44.35;16.05;;;;;;;5.51;72.65;99891.97;1793028;79;21144;-91
2020/12/16 12:19:51;;;;;;;44.93;18.32;;;;;;;5.42;72.60;99899.22;1798932;78;21127;-91
2020/12/16 12:22:18;;;;;;;49.73;20.65;;;;;;;5.31;72.75;99891.80;1753502;80;21597;-91
2020/12/16 12:24:46;;;;;;;49.83;20.12;;;;;;;5.28;73.08;99894.37;1737645;82;22247;-91
2020/12/16 12:27:13;;;;;;;40.30;17.05;;;;;;;5.32;73.21;99899.56;1774819;78;21785;-91